createdAt,value
2019-03-27T00:01:42.887Z,49.80
2019-03-27T00:04:17.460Z,51.15
2019-03-27T00:06:51.885Z,51.00
2019-03-27T00:09:26.351Z,50.75
2019-03-27T00:12:00.765Z,49.33
2019-03-27T00:14:35.403Z,50.78
2019-03-27T00:17:09.814Z,49.73
2019-03-27T00:19:44.328Z,50.83
2019-03-27T00:22:19.028Z,51.63
2019-03-27T00:24:53.517Z,52.05
2019-03-27T00:27:29.090Z,51.23
2019-03-27T00:30:03.611Z,52.62
2019-03-27T00:32:39.287Z,51.28
2019-03-27T00:35:14.558Z,50.75
2019-03-27T00:37:49.129Z,50.58
2019-03-27T00:40:23.767Z,51.42
2019-03-27T00:42:58.478Z,50.30
2019-03-27T00:45:33.104Z,50.10
2019-03-27T00:48:07.750Z,50.30
2019-03-27T00:50:42.236Z,50.03
2019-03-27T00:53:16.930Z,50.60
2019-03-27T00:55:51.775Z,50.12
2019-03-27T00:58:26.190Z,50.88
2019-03-27T01:01:12.076Z,50.28
2019-03-27T01:03:46.940Z,49.42
2019-03-27T01:06:21.382Z,50.52
2019-03-27T01:08:56.267Z,51.42
2019-03-27T01:11:30.981Z,50.12
2019-03-27T01:14:05.705Z,49.65
2019-03-27T01:16:40.311Z,50.73
2019-03-27T01:19:14.711Z,49.55
2019-03-27T01:21:49.251Z,49.53
2019-03-27T01:24:23.823Z,51.30
2019-03-27T01:26:58.354Z,50.35
2019-03-27T01:29:32.878Z,51.30
2019-03-27T01:32:07.576Z,50.63
2019-03-27T01:34:42.105Z,49.95
2019-03-27T01:37:16.735Z,50.90
2019-03-27T01:39:51.280Z,49.42
2019-03-27T01:42:26.093Z,51.00
2019-03-27T01:45:00.714Z,50.23
2019-03-27T01:47:35.401Z,49.58
2019-03-27T01:50:11.138Z,50.85
2019-03-27T01:52:45.482Z,48.48
2019-03-27T01:55:20.062Z,49.20
2019-03-27T01:57:54.594Z,50.83
2019-03-27T02:00:28.950Z,50.28
2019-03-27T02:03:03.645Z,49.73
2019-03-27T02:05:38.056Z,51.15
2019-03-27T02:08:12.592Z,51.50
2019-03-27T02:10:47.356Z,50.95
2019-03-27T02:13:22.249Z,50.98
2019-03-27T02:16:06.879Z,49.55
2019-03-27T02:18:33.481Z,50.03
2019-03-27T02:21:08.392Z,49.80
2019-03-27T02:23:42.842Z,50.70
2019-03-27T02:26:17.571Z,51.42
2019-03-27T02:28:52.399Z,51.10
2019-03-27T02:31:26.833Z,50.73
2019-03-27T02:34:01.370Z,50.12
2019-03-27T02:36:35.803Z,50.73
2019-03-27T02:39:10.276Z,50.28
2019-03-27T02:41:45.160Z,48.85
2019-03-27T02:44:19.766Z,49.80
2019-03-27T02:46:54.590Z,49.65
2019-03-27T02:49:29.235Z,49.75
2019-03-27T02:52:04.030Z,49.45
2019-03-27T02:54:38.786Z,49.85
2019-03-27T02:57:13.385Z,49.93
2019-03-27T02:59:47.929Z,50.43
2019-03-27T03:02:22.700Z,49.45
2019-03-27T03:04:57.361Z,51.20
2019-03-27T03:07:31.963Z,50.75
2019-03-27T03:10:07.234Z,50.08
2019-03-27T03:12:41.855Z,48.98
2019-03-27T03:15:22.897Z,50.48
2019-03-27T03:17:57.297Z,50.25
2019-03-27T03:20:31.999Z,51.05
2019-03-27T03:23:06.505Z,51.02
2019-03-27T03:25:41.419Z,49.13
2019-03-27T03:28:16.082Z,50.15
2019-03-27T03:30:50.753Z,49.55
2019-03-27T03:33:26.415Z,50.65
2019-03-27T03:36:00.956Z,50.30
2019-03-27T03:38:35.410Z,49.88
2019-03-27T03:41:09.946Z,49.27
2019-03-27T03:43:44.603Z,49.73
2019-03-27T03:46:19.166Z,48.95
2019-03-27T03:48:53.891Z,48.70
2019-03-27T03:51:28.512Z,49.88
2019-03-27T03:54:03.828Z,49.30
2019-03-27T03:56:40.974Z,48.78
2019-03-27T03:59:16.857Z,48.35
2019-03-27T04:01:53.380Z,48.85
2019-03-27T04:04:28.228Z,49.48
2019-03-27T04:07:02.730Z,48.10
2019-03-27T04:09:37.288Z,47.43
2019-03-27T04:12:11.843Z,47.62
2019-03-27T04:14:46.592Z,47.98
2019-03-27T04:17:21.151Z,47.33
2019-03-27T04:19:55.544Z,47.45
2019-03-27T04:22:30.046Z,48.23
2019-03-27T04:25:04.544Z,46.68
2019-03-27T04:28:24.839Z,47.35
2019-03-27T04:30:59.315Z,47.05
2019-03-27T04:33:33.677Z,46.95
2019-03-27T04:36:08.457Z,46.35
2019-03-27T04:38:42.950Z,46.13
2019-03-27T04:41:17.537Z,45.48
2019-03-27T04:43:52.090Z,45.17
2019-03-27T04:46:26.739Z,46.18
2019-03-27T04:49:01.306Z,46.10
2019-03-27T04:51:35.898Z,47.15
2019-03-27T04:54:10.324Z,46.02
2019-03-27T04:56:44.677Z,45.95
2019-03-27T04:59:19.235Z,45.78
2019-03-27T05:01:54.206Z,44.10
2019-03-27T05:04:29.557Z,45.05
2019-03-27T05:07:04.004Z,44.33
2019-03-27T05:09:38.696Z,44.48
2019-03-27T05:12:13.197Z,44.20
2019-03-27T05:14:47.633Z,43.45
2019-03-27T05:17:22.082Z,42.43
2019-03-27T05:19:57.619Z,44.90
2019-03-27T05:22:32.300Z,43.52
2019-03-27T05:25:07.714Z,42.48
2019-03-27T05:27:42.255Z,42.85
2019-03-27T05:30:18.101Z,43.35
2019-03-27T05:32:52.661Z,42.20
2019-03-27T05:35:27.177Z,42.48
2019-03-27T05:38:02.039Z,42.35
2019-03-27T05:40:36.495Z,42.65
2019-03-27T05:43:11.152Z,41.55
2019-03-27T05:45:45.951Z,42.55
2019-03-27T05:48:20.661Z,41.73
2019-03-27T05:50:56.502Z,40.90
2019-03-27T05:53:32.118Z,42.25
2019-03-27T05:56:07.164Z,40.05
2019-03-27T05:58:41.729Z,40.03
2019-03-27T06:01:16.396Z,38.85
2019-03-27T06:03:51.883Z,40.03
2019-03-27T06:06:26.752Z,38.80
2019-03-27T06:09:01.240Z,39.75
2019-03-27T06:11:37.401Z,39.20
2019-03-27T06:14:12.093Z,39.88
2019-03-27T06:16:46.777Z,39.03
2019-03-27T06:19:21.268Z,37.30
2019-03-27T06:21:56.780Z,38.17
2019-03-27T06:24:32.674Z,37.78
2019-03-27T06:27:07.213Z,35.68
2019-03-27T06:29:41.933Z,36.83
2019-03-27T06:32:16.826Z,36.93
2019-03-27T06:34:51.423Z,37.78
2019-03-27T06:37:25.928Z,37.60
2019-03-27T06:40:02.163Z,36.45
2019-03-27T06:42:41.317Z,35.95
2019-03-27T06:45:17.776Z,35.35
2019-03-27T06:47:53.015Z,35.35
2019-03-27T06:50:28.000Z,35.38
2019-03-27T06:53:02.831Z,34.73
2019-03-27T06:55:37.810Z,34.27
2019-03-27T06:58:12.557Z,33.88
2019-03-27T07:00:47.164Z,34.27
2019-03-27T07:03:21.941Z,33.83
2019-03-27T07:05:56.910Z,32.83
2019-03-27T07:08:31.442Z,34.08
2019-03-27T07:11:06.517Z,33.23
2019-03-27T07:13:41.310Z,32.20
2019-03-27T07:16:16.085Z,32.65
2019-03-27T07:18:50.829Z,33.33
2019-03-27T07:21:25.534Z,32.03
2019-03-27T07:24:00.423Z,33.73
2019-03-27T07:26:35.196Z,33.40
2019-03-27T07:29:09.965Z,32.30
2019-03-27T07:31:44.570Z,32.10
2019-03-27T07:34:20.191Z,30.97
2019-03-27T07:36:56.315Z,31.48
2019-03-27T07:39:30.856Z,30.85
2019-03-27T07:42:05.345Z,30.77
2019-03-27T07:44:40.715Z,30.32
2019-03-27T07:47:15.576Z,30.90
2019-03-27T07:49:50.358Z,28.95
2019-03-27T07:52:24.973Z,29.90
2019-03-27T07:54:59.679Z,28.55
2019-03-27T07:57:34.346Z,28.02
2019-03-27T08:00:10.203Z,28.77
2019-03-27T08:02:46.221Z,28.57
2019-03-27T08:05:20.716Z,27.80
2019-03-27T08:07:55.575Z,27.42
2019-03-27T08:10:30.393Z,27.70
2019-03-27T08:13:05.121Z,27.98
2019-03-27T08:15:40.973Z,26.87
2019-03-27T08:18:15.807Z,27.25
2019-03-27T08:20:50.293Z,26.35
2019-03-27T08:23:24.652Z,27.07
2019-03-27T08:25:59.315Z,26.85
2019-03-27T08:28:33.834Z,25.80
2019-03-27T08:31:08.588Z,25.62
2019-03-27T08:33:43.662Z,26.48
2019-03-27T08:36:18.345Z,25.27
2019-03-27T08:38:53.153Z,25.65
2019-03-27T08:41:28.219Z,24.23
2019-03-27T08:44:04.135Z,24.57
2019-03-27T08:46:39.903Z,25.10
2019-03-27T08:49:21.661Z,24.60
2019-03-27T08:51:50.534Z,24.12
2019-03-27T08:54:25.228Z,23.50
2019-03-27T08:57:00.306Z,23.45
2019-03-27T08:59:34.930Z,23.70
2019-03-27T09:02:09.642Z,23.02
2019-03-27T09:04:44.376Z,22.90
2019-03-27T09:07:18.933Z,23.70
2019-03-27T09:09:53.514Z,22.35
2019-03-27T09:12:28.142Z,22.25
2019-03-27T09:15:02.868Z,22.13
2019-03-27T09:17:37.650Z,21.40
2019-03-27T09:20:13.006Z,21.75
2019-03-27T09:22:47.669Z,21.30
2019-03-27T09:25:22.212Z,21.15
2019-03-27T09:27:56.812Z,20.68
2019-03-27T09:30:31.527Z,21.20
2019-03-27T09:33:06.365Z,20.20
2019-03-27T09:35:41.521Z,20.50
2019-03-27T09:38:16.654Z,20.62
2019-03-27T09:40:51.471Z,21.15
2019-03-27T09:43:26.489Z,19.50
2019-03-27T09:46:01.008Z,19.87
2019-03-27T09:48:35.469Z,19.17
2019-03-27T09:51:10.143Z,19.23
2019-03-27T09:53:44.981Z,19.82
2019-03-27T09:56:19.813Z,19.50
2019-03-27T09:58:54.542Z,18.80
2019-03-27T10:01:29.214Z,19.17
2019-03-27T10:04:03.708Z,19.20
2019-03-27T10:06:38.367Z,18.90
2019-03-27T10:09:13.678Z,18.87
2019-03-27T10:11:48.217Z,17.98
2019-03-27T10:14:22.791Z,18.45
2019-03-27T10:16:57.582Z,18.92
2019-03-27T10:19:32.455Z,18.27
2019-03-27T10:22:07.354Z,17.90
2019-03-27T10:24:44.452Z,17.75
2019-03-27T10:27:18.744Z,18.00
2019-03-27T10:29:53.374Z,17.48
2019-03-27T10:32:28.290Z,17.75
2019-03-27T10:35:03.549Z,17.17
2019-03-27T10:37:38.386Z,16.90
2019-03-27T10:40:12.935Z,17.02
2019-03-27T10:42:47.675Z,16.15
2019-03-27T10:45:22.329Z,16.57
2019-03-27T10:47:56.905Z,16.67
2019-03-27T10:50:31.571Z,16.27
2019-03-27T10:53:06.254Z,16.60
2019-03-27T10:55:40.775Z,15.78
2019-03-27T10:58:15.502Z,16.60
2019-03-27T11:00:50.217Z,17.02
2019-03-27T11:03:24.561Z,15.93
2019-03-27T11:05:59.085Z,16.15
2019-03-27T11:08:33.613Z,16.27
2019-03-27T11:11:08.190Z,16.62
2019-03-27T11:13:42.741Z,17.05
2019-03-27T11:16:17.436Z,15.98
2019-03-27T11:18:52.229Z,15.88
2019-03-27T11:21:26.958Z,15.75
2019-03-27T11:24:01.751Z,15.50
2019-03-27T11:26:37.532Z,15.63
2019-03-27T11:29:12.552Z,15.88
2019-03-27T11:31:49.105Z,15.10
2019-03-27T11:34:23.812Z,14.87
2019-03-27T11:36:58.299Z,15.78
2019-03-27T11:39:32.986Z,14.30
2019-03-27T11:42:07.973Z,15.03
2019-03-27T11:44:43.183Z,14.73
2019-03-27T11:47:18.027Z,15.28
2019-03-27T11:49:52.761Z,15.05
2019-03-27T11:52:29.663Z,15.32
2019-03-27T11:55:04.158Z,14.80
2019-03-27T11:57:38.845Z,15.00
2019-03-27T12:00:14.495Z,14.35
2019-03-27T12:02:49.254Z,14.60
2019-03-27T12:05:24.380Z,15.13
2019-03-27T12:07:58.862Z,14.45
2019-03-27T12:10:33.679Z,14.50
2019-03-27T12:13:08.686Z,14.98
2019-03-27T12:15:47.499Z,14.63
2019-03-27T12:18:22.274Z,13.80
2019-03-27T12:20:59.788Z,14.47
2019-03-27T12:23:34.734Z,14.33
2019-03-27T12:26:09.470Z,14.00
2019-03-27T12:28:44.104Z,14.35
2019-03-27T12:31:18.625Z,14.30
2019-03-27T12:33:53.345Z,14.05
2019-03-27T12:36:27.982Z,14.07
2019-03-27T12:39:02.663Z,14.55
2019-03-27T12:41:37.712Z,13.93
2019-03-27T12:44:12.484Z,14.40
2019-03-27T12:46:47.030Z,14.18
2019-03-27T12:49:21.365Z,14.68
2019-03-27T12:51:56.052Z,15.95
2019-03-27T12:54:30.621Z,14.25
2019-03-27T12:57:05.151Z,14.65
2019-03-27T12:59:40.076Z,15.00
2019-03-27T13:02:14.802Z,15.43
2019-03-27T13:04:49.398Z,14.68
2019-03-27T13:07:23.963Z,14.83
2019-03-27T13:09:58.499Z,14.75
2019-03-27T13:12:32.990Z,15.30
2019-03-27T13:15:07.959Z,15.18
2019-03-27T13:17:42.538Z,15.55
2019-03-27T13:20:17.596Z,15.98
2019-03-27T13:22:52.277Z,15.45
2019-03-27T13:25:26.723Z,15.30
2019-03-27T13:28:01.265Z,15.30
2019-03-27T13:30:36.012Z,15.40
2019-03-27T13:33:10.561Z,15.55
2019-03-27T13:35:45.074Z,15.30
2019-03-27T13:38:20.006Z,15.18
2019-03-27T13:40:54.799Z,15.70
2019-03-27T13:43:29.341Z,15.40
2019-03-27T13:46:04.093Z,15.08
2019-03-27T13:48:38.824Z,15.35
2019-03-27T13:51:13.380Z,15.85
2019-03-27T13:53:48.282Z,15.70
2019-03-27T13:56:22.960Z,15.58
2019-03-27T13:58:57.599Z,14.93
2019-03-27T14:01:32.186Z,15.60
2019-03-27T14:04:06.926Z,15.50
2019-03-27T14:06:44.567Z,14.60
2019-03-27T14:09:17.854Z,15.48
2019-03-27T14:11:52.450Z,15.18
2019-03-27T14:14:27.016Z,15.23
2019-03-27T14:17:01.679Z,15.18
2019-03-27T14:19:36.312Z,15.32
2019-03-27T14:22:11.026Z,15.58
2019-03-27T14:24:45.433Z,16.20
2019-03-27T14:27:19.923Z,16.57
2019-03-27T14:29:54.649Z,16.65
2019-03-27T14:32:29.528Z,16.90
2019-03-27T14:35:04.264Z,18.12
2019-03-27T14:37:39.265Z,18.20
2019-03-27T14:40:13.925Z,17.67
2019-03-27T14:42:48.759Z,17.77
2019-03-27T14:45:23.354Z,18.30
2019-03-27T14:47:58.190Z,17.23
2019-03-27T14:50:32.787Z,17.55
2019-03-27T14:53:07.400Z,16.77
2019-03-27T14:55:41.912Z,17.42
2019-03-27T14:58:16.575Z,17.50
2019-03-27T15:00:51.273Z,17.57
2019-03-27T15:03:25.670Z,17.67
2019-03-27T15:06:00.333Z,17.52
2019-03-27T15:08:35.096Z,17.45
2019-03-27T15:11:09.912Z,17.40
2019-03-27T15:13:44.457Z,18.50
2019-03-27T15:16:19.129Z,19.60
2019-03-27T15:18:53.405Z,18.85
2019-03-27T15:21:27.683Z,19.45
2019-03-27T15:24:02.301Z,23.87
2019-03-27T15:26:36.721Z,20.97
2019-03-27T15:29:11.381Z,20.50
2019-03-27T15:31:46.031Z,19.48
2019-03-27T15:34:20.798Z,21.65
2019-03-27T15:36:55.202Z,21.62
2019-03-27T15:39:30.118Z,21.40
2019-03-27T15:42:04.761Z,21.77
2019-03-27T15:44:39.226Z,27.65
2019-03-27T15:47:13.687Z,24.90
2019-03-27T15:49:48.047Z,23.65
2019-03-27T15:52:35.426Z,23.50
2019-03-27T15:54:58.753Z,22.65
2019-03-27T15:57:33.131Z,24.25
2019-03-27T16:00:07.898Z,24.18
2019-03-27T16:02:42.703Z,27.32
2019-03-27T16:05:17.168Z,25.97
2019-03-27T16:07:52.077Z,26.55
2019-03-27T16:10:26.807Z,22.75
2019-03-27T16:13:01.461Z,23.50
2019-03-27T16:15:37.182Z,24.07
2019-03-27T16:18:11.896Z,25.65
2019-03-27T16:20:46.567Z,24.57
2019-03-27T16:23:21.222Z,24.00
2019-03-27T16:25:56.016Z,25.12
2019-03-27T16:28:30.456Z,25.08
2019-03-27T16:31:05.264Z,27.20
2019-03-27T16:33:39.900Z,27.90
2019-03-27T16:36:14.390Z,24.95
2019-03-27T16:38:48.820Z,25.95
2019-03-27T16:41:23.451Z,29.60
2019-03-27T16:43:58.063Z,34.15
2019-03-27T16:46:32.978Z,27.02
2019-03-27T16:49:07.975Z,26.55
2019-03-27T16:51:42.469Z,28.47
2019-03-27T16:54:16.965Z,27.17
2019-03-27T16:56:51.462Z,28.90
2019-03-27T16:59:26.010Z,27.73
2019-03-27T17:02:01.204Z,28.77
2019-03-27T17:04:35.578Z,27.37
2019-03-27T17:07:10.146Z,29.48
2019-03-27T17:09:44.560Z,30.57
2019-03-27T17:12:19.235Z,28.52
2019-03-27T17:14:53.846Z,29.50
2019-03-27T17:17:28.347Z,29.37
2019-03-27T17:20:02.966Z,31.27
2019-03-27T17:22:37.441Z,31.17
2019-03-27T17:25:12.152Z,30.55
2019-03-27T17:27:46.681Z,33.00
2019-03-27T17:30:21.691Z,31.62
2019-03-27T17:32:56.310Z,31.95
2019-03-27T17:35:30.774Z,32.05
2019-03-27T17:38:05.194Z,33.00
2019-03-27T17:40:39.787Z,33.67
2019-03-27T17:43:14.184Z,32.17
2019-03-27T17:45:48.613Z,33.20
2019-03-27T17:48:22.999Z,36.40
2019-03-27T17:50:57.669Z,33.85
2019-03-27T17:53:32.345Z,33.65
2019-03-27T17:56:07.078Z,33.38
2019-03-27T17:58:42.190Z,34.90
2019-03-27T18:01:16.528Z,34.53
2019-03-27T18:03:51.038Z,34.67
2019-03-27T18:06:25.340Z,36.20
2019-03-27T18:08:59.995Z,35.55
2019-03-27T18:11:34.430Z,36.95
2019-03-27T18:14:08.962Z,36.48
2019-03-27T18:16:44.251Z,36.13
2019-03-27T18:19:18.699Z,38.05
2019-03-27T18:22:06.690Z,36.33
2019-03-27T18:24:29.515Z,36.65
2019-03-27T18:27:04.274Z,37.53
2019-03-27T18:29:39.057Z,39.45
2019-03-27T18:32:14.186Z,39.05
2019-03-27T18:34:49.501Z,38.42
2019-03-27T18:37:24.005Z,38.88
2019-03-27T18:39:58.521Z,39.00
2019-03-27T18:42:33.289Z,40.05
2019-03-27T18:45:08.067Z,39.90
2019-03-27T18:47:42.731Z,40.12
2019-03-27T18:50:17.271Z,41.60
2019-03-27T18:52:51.987Z,40.38
2019-03-27T18:55:27.195Z,40.85
2019-03-27T18:58:01.799Z,41.35
2019-03-27T19:00:36.483Z,42.30
2019-03-27T19:03:11.055Z,41.65
2019-03-27T19:05:45.532Z,42.78
2019-03-27T19:08:20.009Z,42.50
2019-03-27T19:10:55.518Z,43.08
2019-03-27T19:13:30.016Z,43.48
2019-03-27T19:16:04.372Z,44.23
2019-03-27T19:18:38.769Z,43.70
2019-03-27T19:21:13.398Z,44.08
2019-03-27T19:23:47.936Z,44.77
2019-03-27T19:26:22.485Z,44.75
2019-03-27T19:28:56.771Z,45.60
2019-03-27T19:31:31.326Z,46.75
2019-03-27T19:34:06.004Z,45.85
2019-03-27T19:36:40.666Z,46.63
2019-03-27T19:39:15.243Z,46.50
2019-03-27T19:41:49.914Z,46.92
2019-03-27T19:44:24.420Z,47.10
2019-03-27T19:47:00.687Z,47.80
2019-03-27T19:49:35.029Z,46.83
2019-03-27T19:52:09.611Z,47.65
2019-03-27T19:54:44.160Z,47.27
2019-03-27T19:57:18.665Z,48.13
2019-03-27T19:59:53.957Z,49.15
2019-03-27T20:02:28.475Z,47.83
2019-03-27T20:05:03.020Z,48.28
2019-03-27T20:07:37.898Z,49.85
2019-03-27T20:10:13.172Z,49.33
2019-03-27T20:12:47.620Z,48.87
2019-03-27T20:15:22.293Z,49.08
2019-03-27T20:17:56.901Z,49.65
2019-03-27T20:20:31.630Z,51.40
2019-03-27T20:23:14.711Z,49.35
2019-03-27T20:25:42.140Z,51.25
2019-03-27T20:28:16.512Z,49.85
2019-03-27T20:30:51.170Z,49.80
2019-03-27T20:33:25.635Z,50.03
2019-03-27T20:35:59.895Z,50.60
2019-03-27T20:38:34.458Z,50.15
2019-03-27T20:41:08.735Z,51.33
2019-03-27T20:43:45.676Z,50.73
2019-03-27T20:46:25.448Z,50.67
2019-03-27T20:48:56.376Z,52.08
2019-03-27T20:51:30.813Z,51.53
2019-03-27T20:54:06.010Z,51.50
2019-03-27T20:56:40.604Z,50.75
2019-03-27T20:59:18.239Z,50.95
2019-03-27T21:01:51.829Z,50.38
2019-03-27T21:04:26.256Z,52.03
2019-03-27T21:07:00.857Z,52.23
2019-03-27T21:09:35.264Z,52.23
2019-03-27T21:12:09.919Z,53.30
2019-03-27T21:14:44.245Z,51.70
2019-03-27T21:17:18.657Z,52.08
2019-03-27T21:19:53.242Z,53.17
2019-03-27T21:22:27.948Z,51.98
2019-03-27T21:25:09.007Z,52.17
2019-03-27T21:27:39.238Z,52.73
2019-03-27T21:30:14.206Z,52.10
2019-03-27T21:32:48.646Z,53.08
2019-03-27T21:35:23.118Z,53.58
2019-03-27T21:37:57.755Z,53.87
2019-03-27T21:40:32.148Z,54.63
2019-03-27T21:43:06.635Z,53.78
2019-03-27T21:45:41.423Z,54.30
2019-03-27T21:48:15.804Z,52.73
2019-03-27T21:50:50.575Z,54.08
2019-03-27T21:53:25.299Z,53.10
2019-03-27T21:56:00.509Z,53.13
2019-03-27T21:58:34.870Z,54.03
2019-03-27T22:01:09.800Z,54.00
2019-03-27T22:03:44.258Z,53.28
2019-03-27T22:06:18.971Z,53.63
2019-03-27T22:08:53.511Z,53.52
2019-03-27T22:11:28.873Z,54.08
2019-03-27T22:14:03.329Z,55.23
2019-03-27T22:16:37.896Z,54.38
2019-03-27T22:19:12.309Z,54.48
2019-03-27T22:21:46.734Z,54.98
2019-03-27T22:24:21.317Z,55.43
2019-03-27T22:26:54.809Z,53.90
2019-03-27T22:29:29.430Z,54.50
2019-03-27T22:32:03.820Z,54.00
2019-03-27T22:34:38.454Z,53.40
2019-03-27T22:37:12.977Z,54.18
2019-03-27T22:39:48.044Z,54.03
2019-03-27T22:42:22.819Z,53.17
2019-03-27T22:44:57.667Z,53.83
2019-03-27T22:47:32.377Z,54.45
2019-03-27T22:50:08.398Z,53.45
2019-03-27T22:52:43.231Z,54.35
2019-03-27T22:55:17.926Z,54.13
2019-03-27T22:57:52.518Z,54.60
2019-03-27T23:00:47.317Z,54.08
2019-03-27T23:03:23.444Z,53.35
2019-03-27T23:05:58.234Z,54.05
2019-03-27T23:08:32.698Z,53.68
2019-03-27T23:11:07.440Z,53.20
2019-03-27T23:13:42.127Z,54.45
2019-03-27T23:16:16.973Z,53.33
2019-03-27T23:18:51.595Z,54.08
2019-03-27T23:21:25.998Z,52.40
2019-03-27T23:24:00.717Z,53.05
2019-03-27T23:26:35.059Z,54.25
2019-03-27T23:29:09.770Z,54.65
2019-03-27T23:31:44.149Z,53.60
2019-03-27T23:34:19.805Z,53.17
2019-03-27T23:36:54.155Z,54.38
2019-03-27T23:39:28.685Z,53.25
2019-03-27T23:42:03.371Z,52.43
2019-03-27T23:44:37.908Z,53.33
2019-03-27T23:47:12.558Z,53.95
2019-03-27T23:49:46.985Z,54.85
2019-03-27T23:52:21.373Z,53.92
2019-03-27T23:54:55.897Z,53.52
2019-03-27T23:57:30.425Z,54.23
